Time;durP1;ratioP1;P1;durP2;ratioP2;P2;SDS_P1;SDS_P2;PMS_P1;PMS_P2;Temp;Humidity;BMP_temperature;BMP_pressure;BME280_temperature;BME280_humidity;BME280_pressure;Samples;Min_cycle;Max_cycle;Signal;HPM_P1;HPM_P2
2022/09/18 00:01:00;;;;;;;6.32;1.15;;;12.00;99.90;;;;;;5007531;28;20026;-71
2022/09/18 00:03:27;;;;;;;2.75;0.85;;;12.00;99.90;;;;;;5007445;28;20121;-70
2022/09/18 00:05:53;;;;;;;2.47;0.55;;;12.00;99.90;;;;;;4992973;28;20030;-71
2022/09/18 00:08:18;;;;;;;8.52;0.88;;;12.00;99.90;;;;;;5007971;28;20034;-71
2022/09/18 00:10:47;;;;;;;1.67;0.35;;;12.00;99.90;;;;;;4992761;28;20113;-71
2022/09/18 00:13:14;;;;;;;9.20;1.25;;;11.90;99.90;;;;;;5007687;28;20033;-71
2022/09/18 00:15:40;;;;;;;5.53;0.82;;;11.90;99.90;;;;;;4992669;28;20408;-70
2022/09/18 00:18:07;;;;;;;11.02;1.38;;;11.90;99.90;;;;;;5007677;28;20027;-70
2022/09/18 00:20:35;;;;;;;1.08;0.95;;;11.90;99.90;;;;;;4992547;28;20030;-71
2022/09/18 00:23:01;;;;;;;1.17;0.55;;;11.80;99.90;;;;;;4992472;28;20026;-70
2022/09/18 00:25:28;;;;;;;3.25;0.73;;;12.00;99.90;;;;;;5007103;28;20045;-70
2022/09/18 00:27:53;;;;;;;6.13;0.80;;;11.80;99.90;;;;;;4992561;28;20517;-69
2022/09/18 00:30:19;;;;;;;3.45;0.93;;;11.70;99.90;;;;;;4992181;28;20031;-70
2022/09/18 00:32:45;;;;;;;4.25;0.80;;;11.70;99.90;;;;;;4991930;28;20499;-69
2022/09/18 00:35:10;;;;;;;1.92;0.60;;;11.70;99.90;;;;;;4992384;28;20034;-70
2022/09/18 00:37:36;;;;;;;2.83;0.50;;;11.70;99.90;;;;;;4992489;28;20038;-70
2022/09/18 00:40:02;;;;;;;2.92;1.08;;;11.70;99.90;;;;;;4992020;28;20031;-69
2022/09/18 00:42:28;;;;;;;4.45;0.50;;;11.70;99.90;;;;;;4991751;28;20596;-70
2022/09/18 00:44:54;;;;;;;0.45;0.45;;;11.70;99.90;;;;;;4992282;28;20113;-70
2022/09/18 00:47:34;;;;;;;0.57;0.47;;;11.80;99.90;;;;;;4992268;28;20049;-70
2022/09/18 00:50:13;;;;;;;0.28;0.28;;;11.80;99.90;;;;;;4990436;28;20045;-70
2022/09/18 00:52:56;;;;;;;2.50;0.60;;;11.70;99.90;;;;;;5006690;28;20030;-70
2022/09/18 00:55:31;;;;;;;0.90;0.43;;;11.70;99.90;;;;;;5006882;28;20105;-70
2022/09/18 00:57:59;;;;;;;0.73;0.43;;;11.80;99.90;;;;;;5006839;28;20367;-70
2022/09/18 01:00:26;;;;;;;0.40;0.25;;;11.70;99.90;;;;;;4990296;28;20114;-70
2022/09/18 01:02:52;;;;;;;2.42;0.70;;;11.60;99.90;;;;;;4991535;28;20022;-70
2022/09/18 01:05:32;;;;;;;2.15;0.95;;;11.60;99.90;;;;;;5013464;28;20042;-70
2022/09/18 01:08:15;;;;;;;1.50;0.77;;;11.60;99.90;;;;;;5004223;28;20482;-70
2022/09/18 01:10:56;;;;;;;1.00;0.50;;;11.60;99.90;;;;;;5007451;28;20101;-71
2022/09/18 01:13:52;;;;;;;10.75;2.40;;;11.60;99.90;;;;;;5010898;28;20113;-70
2022/09/18 01:16:34;;;;;;;0.63;0.55;;;11.70;99.90;;;;;;4995287;28;20165;-70
2022/09/18 01:19:46;;;;;;;4.82;0.75;;;11.70;99.90;;;;;;4989995;28;20541;-70
2022/09/18 01:22:42;;;;;;;5.72;1.10;;;11.70;99.90;;;;;;4990856;28;20495;-70
2022/09/18 01:25:29;;;;;;;2.80;0.47;;;11.70;99.90;;;;;;5007297;28;20498;-70
2022/09/18 01:28:23;;;;;;;5.15;1.25;;;11.70;99.90;;;;;;5011014;28;20037;-70
2022/09/18 01:30:53;;;;;;;0.68;0.40;;;11.60;99.90;;;;;;5009495;28;20402;-70
2022/09/18 01:33:57;;;;;;;0.70;0.68;;;11.60;99.90;;;;;;5009507;28;20053;-71
2022/09/18 01:36:27;;;;;;;0.13;0.13;;;11.60;99.90;;;;;;5024132;28;20034;-71
2022/09/18 01:39:19;;;;;;;1.60;0.88;;;11.70;99.90;;;;;;5009047;28;20033;-70
2022/09/18 01:41:50;;;;;;;1.23;0.40;;;11.60;99.90;;;;;;4997402;28;20041;-71
2022/09/18 01:44:22;;;;;;;1.02;0.50;;;11.60;99.90;;;;;;4990964;28;20487;-71
2022/09/18 01:46:49;;;;;;;1.60;0.50;;;11.60;99.90;;;;;;4990060;28;20114;-71
2022/09/18 01:49:22;;;;;;;0.32;0.32;;;11.60;99.90;;;;;;4989627;28;20122;-71
2022/09/18 01:52:38;;;;;;;0.73;0.32;;;11.60;99.90;;;;;;4989923;28;20034;-70
2022/09/18 01:55:12;;;;;;;1.70;0.40;;;11.70;99.90;;;;;;4987446;28;20066;-71
2022/09/18 01:57:46;;;;;;;2.40;0.88;;;11.70;99.90;;;;;;4990143;28;20109;-70
2022/09/18 02:00:12;;;;;;;2.78;0.47;;;11.60;99.90;;;;;;4990877;28;20062;-70
2022/09/18 02:03:00;;;;;;;5.57;1.00;;;11.60;99.90;;;;;;4989473;28;20034;-70
2022/09/18 02:05:35;;;;;;;0.77;0.50;;;11.50;99.90;;;;;;4989822;28;20238;-71
2022/09/18 02:08:27;;;;;;;6.75;1.13;;;11.50;99.90;;;;;;4989547;28;20027;-70
2022/09/18 02:11:10;;;;;;;1.48;1.20;;;11.50;99.90;;;;;;4989622;28;20780;-70
2022/09/18 02:14:06;;;;;;;0.40;0.32;;;11.50;99.90;;;;;;4989557;28;20046;-71
2022/09/18 02:16:52;;;;;;;0.77;0.35;;;11.50;99.90;;;;;;5008624;28;20072;-70
2022/09/18 02:19:32;;;;;;;1.33;0.50;;;11.40;99.90;;;;;;5008831;28;20026;-70
2022/09/18 02:22:03;;;;;;;3.88;0.90;;;11.30;99.90;;;;;;5012572;28;20393;-70
2022/09/18 02:24:35;;;;;;;1.40;0.90;;;11.30;99.90;;;;;;5013090;28;20029;-69
2022/09/18 02:27:05;;;;;;;6.38;0.60;;;11.30;99.90;;;;;;5013107;28;20449;-70
2022/09/18 02:29:32;;;;;;;0.20;0.20;;;11.30;99.90;;;;;;5012658;28;20041;-70
2022/09/18 02:31:59;;;;;;;0.40;0.30;;;11.30;99.90;;;;;;4996413;28;20588;-70
2022/09/18 02:34:28;;;;;;;0.60;0.30;;;11.20;99.90;;;;;;5013756;28;20044;-70
2022/09/18 02:37:35;;;;;;;2.95;0.35;;;11.20;99.90;;;;;;5012849;28;20061;-70
2022/09/18 02:40:37;;;;;;;2.58;0.55;;;11.20;99.90;;;;;;5013633;28;20041;-69
2022/09/18 02:43:42;;;;;;;0.82;0.32;;;11.20;99.90;;;;;;5013685;28;20041;-70
2022/09/18 02:46:19;;;;;;;1.05;0.63;;;11.30;99.90;;;;;;5013991;28;20038;-70
2022/09/18 02:49:13;;;;;;;2.25;0.45;;;11.40;99.90;;;;;;5012185;28;20033;-71
2022/09/18 02:51:53;;;;;;;7.80;1.85;;;11.30;99.90;;;;;;5012800;28;20034;-71
2022/09/18 02:54:39;;;;;;;12.73;1.08;;;11.30;99.90;;;;;;5012240;28;20040;-70
2022/09/18 02:57:16;;;;;;;3.30;0.40;;;11.30;99.90;;;;;;5013764;28;20030;-71
2022/09/18 02:59:53;;;;;;;4.55;1.23;;;11.30;99.90;;;;;;5012085;28;20088;-71
2022/09/18 03:02:21;;;;;;;3.10;0.60;;;11.30;99.90;;;;;;5013182;28;20060;-70
2022/09/18 03:04:48;;;;;;;1.75;0.45;;;11.40;99.90;;;;;;5012372;28;20041;-70
2022/09/18 03:07:15;;;;;;;0.35;0.30;;;11.40;99.90;;;;;;5013303;28;20038;-70
2022/09/18 03:09:45;;;;;;;0.28;0.28;;;11.40;99.90;;;;;;5011791;28;20038;-71
2022/09/18 03:12:12;;;;;;;0.55;0.38;;;11.50;99.90;;;;;;5013286;28;20037;-70
2022/09/18 03:14:37;;;;;;;0.20;0.20;;;11.50;99.90;;;;;;5008867;28;20101;-70
2022/09/18 03:17:04;;;;;;;2.00;1.10;;;11.40;99.90;;;;;;4993810;28;20113;-70
2022/09/18 03:19:30;;;;;;;5.55;0.60;;;11.40;99.90;;;;;;4993358;28;20087;-71
2022/09/18 03:21:57;;;;;;;0.90;0.35;;;11.30;99.90;;;;;;4993741;28;20069;-71
2022/09/18 03:26:59;;;;;;;1.27;0.57;;;11.30;99.90;;;;;;4965113;28;20475;-67
2022/09/18 03:29:24;;;;;;;0.20;0.20;;;11.40;99.90;;;;;;4954556;28;20035;-71
2022/09/18 03:31:50;;;;;;;0.52;0.35;;;11.30;99.90;;;;;;4954846;28;20030;-68
2022/09/18 03:34:16;;;;;;;2.53;1.20;;;11.30;99.90;;;;;;4954171;28;20027;-70
2022/09/18 03:36:42;;;;;;;1.83;0.45;;;11.30;99.90;;;;;;4954679;29;20373;-70
2022/09/18 03:39:07;;;;;;;1.10;0.43;;;11.40;99.90;;;;;;4937055;29;20130;-69
2022/09/18 03:41:33;;;;;;;1.60;0.57;;;11.30;99.90;;;;;;4954736;28;20035;-69
2022/09/18 03:43:59;;;;;;;2.70;0.60;;;11.30;99.90;;;;;;4954206;28;20035;-69
2022/09/18 03:46:24;;;;;;;0.47;0.43;;;11.30;99.90;;;;;;4954743;28;20032;-69
2022/09/18 03:48:51;;;;;;;0.82;0.57;;;11.20;99.90;;;;;;4952810;29;20051;-70
2022/09/18 03:51:19;;;;;;;1.67;0.57;;;11.20;99.90;;;;;;4969318;28;20043;-72
2022/09/18 03:53:46;;;;;;;0.47;0.40;;;11.20;99.90;;;;;;4954002;29;20031;-71
2022/09/18 03:56:13;;;;;;;0.20;0.20;;;11.20;99.90;;;;;;4954130;29;20034;-71
2022/09/18 03:58:39;;;;;;;5.15;0.55;;;11.30;99.90;;;;;;4954271;28;20407;-72
2022/09/18 04:01:05;;;;;;;0.60;0.35;;;11.30;99.90;;;;;;4953192;29;20027;-71
2022/09/18 04:03:32;;;;;;;0.50;0.40;;;11.30;99.90;;;;;;4954033;28;20035;-71
2022/09/18 04:05:59;;;;;;;1.45;0.60;;;11.30;99.90;;;;;;4953008;29;20031;-72
2022/09/18 04:08:24;;;;;;;0.20;0.20;;;11.30;99.90;;;;;;4954002;28;20048;-71
2022/09/18 04:10:50;;;;;;;0.20;0.20;;;11.40;99.90;;;;;;4953804;29;20031;-72
2022/09/18 04:13:16;;;;;;;0.20;0.20;;;11.50;99.90;;;;;;4952509;29;20442;-71
2022/09/18 04:15:44;;;;;;;2.00;1.15;;;11.60;99.90;;;;;;4953836;29;20038;-71
2022/09/18 04:18:10;;;;;;;0.60;0.20;;;11.50;99.90;;;;;;4953878;29;20087;-71
2022/09/18 04:20:36;;;;;;;5.97;0.65;;;11.50;99.90;;;;;;4953450;29;20530;-71
2022/09/18 04:23:02;;;;;;;7.03;0.57;;;11.40;99.90;;;;;;4968373;28;20031;-71
2022/09/18 04:25:28;;;;;;;0.28;0.20;;;11.40;99.90;;;;;;4968561;28;20027;-71
2022/09/18 04:27:53;;;;;;;0.20;0.20;;;11.40;99.90;;;;;;4953736;29;20039;-71
2022/09/18 04:30:19;;;;;;;0.30;0.30;;;11.30;99.90;;;;;;4952217;29;20039;-71
2022/09/18 04:32:45;;;;;;;0.40;0.22;;;11.30;99.90;;;;;;4953440;28;20098;-71
2022/09/18 04:35:11;;;;;;;0.52;0.50;;;11.20;99.90;;;;;;4953204;29;20113;-71
2022/09/18 04:37:37;;;;;;;0.50;0.22;;;11.20;99.90;;;;;;4954021;29;20027;-71
2022/09/18 04:40:05;;;;;;;3.17;0.80;;;11.20;99.90;;;;;;4952048;29;20039;-71
2022/09/18 04:42:31;;;;;;;1.70;0.32;;;11.20;99.90;;;;;;4967683;28;20030;-71
2022/09/18 04:44:57;;;;;;;5.07;0.45;;;11.20;99.90;;;;;;4967102;28;20045;-71
2022/09/18 04:47:22;;;;;;;4.07;1.83;;;11.30;99.90;;;;;;4952210;29;20031;-71
2022/09/18 04:49:48;;;;;;;0.98;0.50;;;11.20;99.90;;;;;;4952586;29;20046;-71
2022/09/18 04:52:14;;;;;;;7.13;0.40;;;11.20;99.90;;;;;;4952932;28;20039;-71
2022/09/18 04:54:40;;;;;;;0.17;0.17;;;11.30;99.90;;;;;;4953403;28;20039;-71
2022/09/18 04:57:05;;;;;;;0.28;0.25;;;11.20;99.90;;;;;;4953161;28;20031;-71
2022/09/18 04:59:31;;;;;;;0.32;0.32;;;11.20;99.90;;;;;;4952919;28;20043;-71
2022/09/18 05:01:58;;;;;;;1.85;0.30;;;11.30;99.90;;;;;;4953251;29;20476;-71
2022/09/18 05:04:24;;;;;;;0.10;0.10;;;11.20;99.90;;;;;;4952702;28;20047;-71
2022/09/18 05:06:49;;;;;;;3.42;0.35;;;11.30;99.90;;;;;;4953140;28;20027;-71
2022/09/18 05:09:15;;;;;;;5.80;0.43;;;11.40;99.90;;;;;;4952534;29;20047;-70
2022/09/18 05:11:40;;;;;;;0.60;0.55;;;11.30;99.90;;;;;;4952761;29;20059;-71
2022/09/18 05:14:06;;;;;;;0.45;0.38;;;11.30;99.90;;;;;;4952674;29;20476;-71
2022/09/18 05:16:32;;;;;;;1.45;0.80;;;11.30;99.90;;;;;;4952830;29;20031;-71
2022/09/18 05:18:57;;;;;;;2.40;0.77;;;11.20;99.90;;;;;;4952553;29;20031;-71
2022/09/18 05:21:24;;;;;;;0.63;0.20;;;11.30;99.90;;;;;;4952822;29;20039;-71
2022/09/18 05:23:49;;;;;;;2.03;0.98;;;11.40;99.90;;;;;;4952553;29;20031;-72
2022/09/18 05:26:15;;;;;;;0.90;0.65;;;11.40;99.90;;;;;;4967405;28;20045;-71
2022/09/18 05:28:41;;;;;;;0.10;0.10;;;11.50;99.90;;;;;;4952531;29;20034;-71
2022/09/18 05:31:07;;;;;;;0.20;0.20;;;11.50;99.90;;;;;;4952460;28;20369;-71
2022/09/18 05:33:33;;;;;;;1.63;0.70;;;11.50;99.90;;;;;;4967095;28;20464;-71
2022/09/18 05:35:59;;;;;;;6.00;0.68;;;11.50;99.90;;;;;;4952814;29;20043;-71
2022/09/18 05:38:25;;;;;;;0.82;0.57;;;11.50;99.90;;;;;;4952551;28;20027;-71
2022/09/18 05:40:51;;;;;;;0.52;0.50;;;11.50;99.90;;;;;;4952070;28;20082;-71
2022/09/18 05:43:17;;;;;;;0.75;0.45;;;11.60;99.90;;;;;;4966706;28;20027;-71
2022/09/18 05:45:43;;;;;;;0.55;0.40;;;11.60;99.90;;;;;;4967438;28;20032;-71
2022/09/18 05:48:13;;;;;;;1.77;0.60;;;11.60;99.90;;;;;;4967269;28;20038;-71
2022/09/18 05:50:39;;;;;;;0.47;0.43;;;11.60;99.90;;;;;;4966224;28;20031;-69
2022/09/18 05:53:12;;;;;;;0.28;0.28;;;11.60;99.90;;;;;;4948822;28;20444;-69
2022/09/18 05:55:39;;;;;;;1.05;0.47;;;11.60;99.90;;;;;;4947563;28;20074;-69
2022/09/18 05:58:10;;;;;;;0.70;0.40;;;11.60;99.90;;;;;;4946318;29;20031;-69
2022/09/18 06:00:36;;;;;;;0.80;0.25;;;11.70;99.90;;;;;;4953007;29;20472;-70
2022/09/18 06:03:05;;;;;;;0.82;0.50;;;11.70;99.90;;;;;;4954661;28;20030;-70
2022/09/18 06:05:33;;;;;;;0.95;0.70;;;11.60;99.90;;;;;;4955398;28;20034;-73
2022/09/18 06:08:05;;;;;;;0.20;0.20;;;11.70;99.90;;;;;;4956298;28;20038;-69
2022/09/18 06:10:33;;;;;;;5.47;0.73;;;11.70;99.90;;;;;;4954716;29;20062;-69
2022/09/18 06:13:05;;;;;;;4.78;0.50;;;11.80;99.90;;;;;;4954844;29;20546;-68
2022/09/18 06:15:32;;;;;;;1.38;0.60;;;11.90;99.90;;;;;;4956219;28;20106;-69
2022/09/18 06:17:58;;;;;;;1.20;0.43;;;11.90;99.90;;;;;;4954871;29;20030;-69
2022/09/18 06:20:24;;;;;;;0.52;0.50;;;11.90;99.90;;;;;;4954655;29;20038;-69
2022/09/18 06:22:49;;;;;;;0.95;0.75;;;11.80;99.90;;;;;;4963442;28;20045;-70
2022/09/18 06:25:18;;;;;;;1.95;0.32;;;11.80;99.90;;;;;;4975396;28;20125;-70
2022/09/18 06:27:44;;;;;;;2.28;0.80;;;11.90;99.90;;;;;;4975096;28;20039;-70
2022/09/18 06:30:11;;;;;;;0.47;0.40;;;11.90;99.90;;;;;;4989632;28;20064;-69
2022/09/18 06:32:36;;;;;;;0.77;0.63;;;11.80;99.90;;;;;;4989846;28;20031;-68
2022/09/18 06:35:02;;;;;;;2.25;0.70;;;11.80;99.90;;;;;;4975266;28;20065;-69
2022/09/18 06:37:28;;;;;;;1.95;0.60;;;11.90;99.90;;;;;;4974925;28;20038;-69
2022/09/18 06:39:54;;;;;;;0.68;0.40;;;11.90;99.90;;;;;;4973582;28;20509;-68
2022/09/18 06:42:19;;;;;;;1.20;1.10;;;11.90;99.90;;;;;;4974269;28;20039;-69
2022/09/18 06:44:45;;;;;;;0.80;0.43;;;11.90;99.90;;;;;;4974880;28;20073;-69
2022/09/18 06:47:11;;;;;;;1.60;0.60;;;11.90;99.90;;;;;;4974934;28;20066;-70
2022/09/18 06:49:37;;;;;;;0.50;0.50;;;11.90;99.90;;;;;;4974360;28;20113;-70
2022/09/18 06:52:03;;;;;;;0.73;0.55;;;12.00;99.90;;;;;;4989441;28;20031;-69
2022/09/18 06:54:28;;;;;;;5.95;0.88;;;12.00;99.90;;;;;;4989645;28;20593;-69
2022/09/18 06:56:54;;;;;;;1.98;0.95;;;12.10;99.90;;;;;;4952369;28;20118;-65
2022/09/18 06:59:21;;;;;;;1.35;0.57;;;12.10;99.90;;;;;;4954946;29;20067;-65
2022/09/18 07:01:47;;;;;;;1.30;0.80;;;12.10;99.90;;;;;;4955089;29;20118;-69
2022/09/18 07:04:13;;;;;;;0.90;0.55;;;12.10;99.90;;;;;;4953951;28;20042;-68
2022/09/18 07:06:43;;;;;;;0.32;0.20;;;12.20;99.90;;;;;;4954133;28;20432;-69
2022/09/18 07:09:08;;;;;;;3.10;1.30;;;12.30;99.90;;;;;;4968551;28;20039;-69
2022/09/18 07:11:35;;;;;;;0.95;0.80;;;12.30;99.90;;;;;;4954746;29;20038;-68
2022/09/18 07:14:03;;;;;;;3.38;0.90;;;12.30;99.90;;;;;;4954577;29;20100;-68
2022/09/18 07:16:29;;;;;;;1.27;0.60;;;12.40;99.90;;;;;;4953559;28;20074;-69
2022/09/18 07:18:55;;;;;;;0.30;0.30;;;12.30;99.90;;;;;;4954582;28;20063;-68
2022/09/18 07:21:20;;;;;;;0.63;0.47;;;12.40;99.90;;;;;;4954820;28;20039;-69
2022/09/18 07:23:46;;;;;;;8.95;0.77;;;12.40;99.90;;;;;;4970537;28;20030;-69
2022/09/18 07:26:12;;;;;;;2.67;1.48;;;12.50;99.90;;;;;;4973714;28;20058;-69
2022/09/18 07:28:38;;;;;;;2.60;0.43;;;12.50;99.90;;;;;;4974042;28;20384;-69
2022/09/18 07:31:04;;;;;;;0.30;0.20;;;12.50;99.90;;;;;;4973542;28;20038;-68
2022/09/18 07:33:31;;;;;;;0.45;0.43;;;12.50;99.90;;;;;;4972141;28;20450;-69
2022/09/18 07:36:01;;;;;;;0.35;0.35;;;12.50;99.90;;;;;;4973692;28;20037;-68
2022/09/18 07:38:28;;;;;;;0.88;0.30;;;12.50;99.90;;;;;;4988477;28;20077;-68
2022/09/18 07:40:54;;;;;;;0.73;0.52;;;12.50;99.90;;;;;;4973406;28;20105;-68
2022/09/18 07:43:19;;;;;;;2.67;0.70;;;12.50;99.90;;;;;;4973147;28;20435;-68
2022/09/18 07:45:45;;;;;;;0.98;0.52;;;12.50;99.90;;;;;;4973342;28;20137;-68
2022/09/18 07:48:11;;;;;;;1.00;0.55;;;12.60;99.90;;;;;;4988467;28;20035;-68
2022/09/18 07:50:37;;;;;;;0.30;0.20;;;12.70;99.90;;;;;;4972988;28;20454;-70
2022/09/18 07:53:04;;;;;;;0.32;0.30;;;12.70;99.90;;;;;;4972499;28;20030;-69
2022/09/18 07:55:33;;;;;;;1.20;0.35;;;12.70;99.90;;;;;;4970015;28;20679;-68
2022/09/18 07:58:03;;;;;;;0.90;0.43;;;12.70;99.90;;;;;;4968575;28;20043;-68
2022/09/18 08:00:33;;;;;;;0.10;0.10;;;12.80;99.90;;;;;;4952950;28;20039;-68
2022/09/18 08:03:11;;;;;;;0.83;0.30;;;12.80;99.90;;;;;;4953430;28;20031;-68
2022/09/18 08:05:39;;;;;;;4.38;0.57;;;12.90;99.90;;;;;;4952494;29;20534;-68
2022/09/18 08:08:08;;;;;;;0.75;0.50;;;13.00;99.90;;;;;;4953786;28;20035;-68
2022/09/18 08:10:35;;;;;;;2.85;0.50;;;13.10;99.90;;;;;;4953046;28;20180;-68
2022/09/18 08:13:02;;;;;;;0.77;0.32;;;13.10;99.90;;;;;;4952092;29;20031;-69
2022/09/18 08:15:33;;;;;;;3.35;0.68;;;13.20;99.90;;;;;;4953539;29;20019;-68
2022/09/18 08:18:00;;;;;;;1.35;0.30;;;13.20;99.90;;;;;;4952558;29;20136;-69
2022/09/18 08:20:25;;;;;;;2.38;0.28;;;13.30;99.90;;;;;;4951394;28;20035;-69
2022/09/18 08:22:51;;;;;;;1.40;0.30;;;13.30;99.90;;;;;;4962278;28;20042;-70
2022/09/18 08:25:19;;;;;;;0.50;0.50;;;13.20;99.90;;;;;;4987415;28;20038;-69
2022/09/18 08:27:45;;;;;;;1.27;0.35;;;13.20;99.90;;;;;;4972558;28;20035;-69
2022/09/18 08:30:14;;;;;;;0.38;0.30;;;13.20;99.90;;;;;;4986884;28;20108;-69
2022/09/18 08:32:40;;;;;;;1.15;0.63;;;13.20;99.90;;;;;;4987004;28;20479;-68
2022/09/18 08:35:07;;;;;;;1.77;0.35;;;13.20;99.90;;;;;;4987570;28;20031;-69
2022/09/18 08:37:33;;;;;;;1.88;0.43;;;13.40;99.90;;;;;;4986965;28;20061;-70
2022/09/18 08:39:59;;;;;;;4.82;0.38;;;13.50;99.90;;;;;;4972072;28;20423;-70
2022/09/18 08:42:54;;;;;;;1.17;0.50;;;13.60;99.90;;;;;;4987040;28;20115;-70
2022/09/18 08:46:04;;;;;;;1.50;0.90;;;13.60;99.90;;;;;;4985783;28;20031;-69
2022/09/18 08:48:36;;;;;;;0.80;0.80;;;13.40;99.90;;;;;;4972011;28;20042;-69
2022/09/18 08:51:33;;;;;;;0.95;0.80;;;13.40;99.90;;;;;;4986336;28;20034;-69
2022/09/18 08:54:39;;;;;;;0.63;0.50;;;13.40;99.90;;;;;;4985963;28;20062;-70
2022/09/18 08:57:17;;;;;;;1.60;0.80;;;13.40;99.90;;;;;;4984347;28;20030;-70
2022/09/18 09:00:06;;;;;;;1.65;0.40;;;13.50;99.90;;;;;;4985636;28;20637;-70
2022/09/18 09:02:47;;;;;;;3.13;0.52;;;13.50;99.90;;;;;;4971782;28;20031;-69
2022/09/18 09:05:17;;;;;;;2.50;0.77;;;13.50;99.90;;;;;;4986068;28;20035;-68
2022/09/18 09:08:17;;;;;;;1.38;0.95;;;13.50;99.90;;;;;;4971908;28;20097;-69
2022/09/18 09:10:57;;;;;;;3.20;0.60;;;13.50;99.90;;;;;;4971157;28;20027;-70
2022/09/18 09:14:28;;;;;;;7.97;1.00;;;13.60;99.90;;;;;;4971367;28;20031;-68
2022/09/18 09:17:14;;;;;;;2.38;0.80;;;13.70;99.90;;;;;;4933851;29;20038;-71
2022/09/18 09:19:55;;;;;;;2.78;0.55;;;13.80;99.90;;;;;;4971643;28;20077;-69
2022/09/18 09:22:42;;;;;;;4.40;1.05;;;13.90;99.90;;;;;;4986033;28;20027;-69
2022/09/18 09:26:01;;;;;;;0.47;0.40;;;14.00;99.90;;;;;;4983069;23;20047;-71
2022/09/18 09:29:00;;;;;;;0.60;0.32;;;14.10;99.90;;;;;;4970790;28;20058;-72
2022/09/18 09:31:39;;;;;;;1.15;0.68;;;14.20;99.90;;;;;;4986668;28;20066;-71
2022/09/18 09:34:25;;;;;;;0.10;0.10;;;14.20;99.90;;;;;;4971556;28;20077;-72
2022/09/18 09:36:55;;;;;;;0.20;0.20;;;14.30;99.90;;;;;;4988883;28;20125;-70
2022/09/18 09:39:40;;;;;;;2.35;0.38;;;14.30;99.90;;;;;;4989204;28;20034;-71
2022/09/18 09:42:27;;;;;;;1.67;0.57;;;14.20;99.90;;;;;;4989475;28;20042;-73
2022/09/18 09:45:10;;;;;;;1.17;0.40;;;14.20;99.90;;;;;;4990481;28;20037;-72
2022/09/18 09:48:21;;;;;;;3.85;0.60;;;14.30;99.90;;;;;;5005132;28;20084;-71
2022/09/18 09:50:59;;;;;;;2.90;0.55;;;14.30;99.90;;;;;;4989362;28;20032;-72
2022/09/18 09:53:26;;;;;;;3.25;0.82;;;14.50;99.90;;;;;;5019929;28;20470;-72
2022/09/18 09:56:02;;;;;;;0.75;0.47;;;14.60;99.90;;;;;;5008071;28;20038;-71
2022/09/18 09:59:14;;;;;;;3.35;0.35;;;14.70;99.90;;;;;;4989813;28;20030;-70
2022/09/18 10:01:48;;;;;;;1.70;0.30;;;14.60;99.90;;;;;;4990478;28;20074;-71
2022/09/18 10:04:21;;;;;;;3.63;0.70;;;14.70;99.90;;;;;;4989330;28;20109;-72
2022/09/18 10:07:22;;;;;;;4.47;2.10;;;14.80;99.90;;;;;;4990557;28;20026;-71
2022/09/18 10:10:04;;;;;;;1.60;0.65;;;14.90;99.90;;;;;;4964950;28;20406;-70
2022/09/18 10:12:58;;;;;;;3.38;0.28;;;14.90;99.90;;;;;;4973416;28;20038;-70
2022/09/18 10:15:29;;;;;;;1.45;0.47;;;15.00;99.90;;;;;;4990726;28;20061;-69
2022/09/18 10:18:00;;;;;;;1.58;0.50;;;14.90;99.90;;;;;;4990275;28;20030;-70
2022/09/18 10:20:30;;;;;;;2.55;0.22;;;15.00;99.90;;;;;;4989170;28;20027;-70
2022/09/18 10:23:05;;;;;;;0.30;0.30;;;15.10;99.90;;;;;;4999119;28;20600;-69
2022/09/18 10:25:51;;;;;;;2.60;1.13;;;15.20;99.90;;;;;;5024376;28;20369;-70
2022/09/18 10:28:17;;;;;;;1.77;0.40;;;15.30;99.90;;;;;;5025130;28;20065;-71
2022/09/18 10:31:10;;;;;;;2.33;0.30;;;15.40;99.90;;;;;;5008302;28;20072;-72
2022/09/18 10:33:50;;;;;;;1.02;0.20;;;15.40;99.90;;;;;;5024823;28;20080;-74
2022/09/18 10:36:36;;;;;;;3.72;0.40;;;15.40;99.90;;;;;;5025226;28;20029;-71
2022/09/18 10:39:35;;;;;;;8.25;1.20;;;15.00;99.90;;;;;;5023383;28;20053;-71
2022/09/18 10:42:06;;;;;;;5.93;0.68;;;14.80;99.90;;;;;;5024421;28;20490;-72
2022/09/18 10:44:47;;;;;;;2.17;0.77;;;14.70;99.90;;;;;;5029101;28;20036;-71
2022/09/18 10:47:17;;;;;;;4.38;0.60;;;14.70;99.90;;;;;;5028182;28;20045;-72
2022/09/18 10:49:54;;;;;;;1.00;0.57;;;14.80;99.90;;;;;;5012988;28;20041;-72
2022/09/18 10:52:33;;;;;;;0.95;0.63;;;14.80;99.90;;;;;;5028049;28;20026;-72
2022/09/18 10:55:06;;;;;;;3.92;0.50;;;14.80;99.90;;;;;;5017974;28;20092;-74
2022/09/18 10:57:44;;;;;;;1.67;0.40;;;14.80;99.90;;;;;;4974572;28;20031;-73
2022/09/18 11:00:19;;;;;;;1.20;0.40;;;15.00;99.90;;;;;;4974425;28;20031;-72
2022/09/18 11:03:33;;;;;;;9.38;0.82;;;14.90;99.90;;;;;;4974232;28;20039;-71
2022/09/18 11:06:05;;;;;;;1.20;0.52;;;14.90;99.90;;;;;;4951112;28;20027;-72
2022/09/18 11:08:39;;;;;;;0.75;0.20;;;14.90;99.90;;;;;;4969895;28;20050;-72
2022/09/18 11:11:11;;;;;;;0.82;0.43;;;15.10;99.90;;;;;;4974248;28;20033;-73
2022/09/18 11:14:04;;;;;;;;;;;15.10;99.90;;;;;;4957563;28;20060;-72
2022/09/18 11:16:37;;;;;;;1.52;0.32;;;15.10;99.90;;;;;;4965984;28;19933;-73
2022/09/18 11:19:09;;;;;;;5.70;0.70;;;15.10;99.90;;;;;;4972919;28;20039;-74
2022/09/18 11:21:49;;;;;;;1.90;0.93;;;15.10;99.90;;;;;;4974103;28;20034;-72
2022/09/18 11:24:37;;;;;;;3.17;0.77;;;15.10;99.90;;;;;;4988289;28;20053;-73
2022/09/18 11:27:42;;;;;;;0.82;0.25;;;15.10;99.90;;;;;;4974049;28;20486;-73
2022/09/18 11:30:20;;;;;;;0.93;0.50;;;15.10;99.90;;;;;;4972617;28;20077;-73
2022/09/18 11:32:48;;;;;;;2.20;1.02;;;15.10;99.90;;;;;;4988351;28;20439;-72
2022/09/18 11:35:18;;;;;;;1.48;0.50;;;15.10;99.90;;;;;;4990594;28;20034;-72
2022/09/18 11:38:06;;;;;;;0.63;0.43;;;15.00;99.90;;;;;;5008210;28;20032;-73
2022/09/18 11:40:47;;;;;;;3.50;0.75;;;15.20;99.90;;;;;;5007750;28;20400;-75
2022/09/18 11:43:33;;;;;;;0.85;0.45;;;15.10;99.90;;;;;;5007734;28;20050;-73
2022/09/18 11:46:21;;;;;;;2.25;0.40;;;14.90;99.90;;;;;;5007420;28;20041;-73
2022/09/18 11:49:13;;;;;;;0.30;0.22;;;14.90;99.90;;;;;;5006252;28;20501;-70
2022/09/18 11:52:15;;;;;;;0.95;0.47;;;14.90;99.90;;;;;;4992235;28;20442;-71
2022/09/18 11:54:57;;;;;;;2.28;0.55;;;15.00;99.90;;;;;;4986657;28;20031;-71
2022/09/18 11:57:36;;;;;;;1.77;0.60;;;14.80;99.90;;;;;;4972616;28;20533;-73
2022/09/18 12:00:06;;;;;;;1.30;0.85;;;14.80;99.90;;;;;;4973276;28;20097;-72
2022/09/18 12:03:05;;;;;;;0.63;0.55;;;14.70;99.90;;;;;;4973234;28;20034;-74
2022/09/18 12:05:55;;;;;;;0.77;0.50;;;14.70;99.90;;;;;;4973331;28;20046;-73
2022/09/18 12:08:43;;;;;;;0.98;0.63;;;14.70;99.90;;;;;;4956221;28;20403;-72
2022/09/18 12:11:39;;;;;;;0.43;0.25;;;14.70;99.90;;;;;;4973411;28;20042;-72
2022/09/18 12:14:46;;;;;;;0.30;0.20;;;14.80;99.90;;;;;;4973218;28;20058;-72
2022/09/18 12:17:52;;;;;;;0.57;0.43;;;14.80;99.90;;;;;;4973360;28;20027;-73
2022/09/18 12:20:51;;;;;;;1.50;0.50;;;14.80;99.90;;;;;;4972722;28;20499;-73
2022/09/18 12:23:25;;;;;;;1.05;0.63;;;14.80;99.90;;;;;;4994564;28;20034;-72
2022/09/18 12:26:18;;;;;;;3.33;0.65;;;15.00;99.90;;;;;;5027169;28;20034;-72
2022/09/18 12:29:15;;;;;;;0.90;0.40;;;15.00;99.90;;;;;;5026109;28;20172;-72
2022/09/18 12:32:03;;;;;;;0.85;0.55;;;15.00;99.90;;;;;;4975579;28;20432;-72
2022/09/18 12:35:06;;;;;;;2.38;0.60;;;15.00;99.90;;;;;;4971441;28;20113;-71
2022/09/18 12:38:05;;;;;;;1.92;0.55;;;15.00;99.90;;;;;;4971705;28;20042;-72
2022/09/18 12:41:16;;;;;;;8.57;0.75;;;14.90;99.90;;;;;;4972483;28;20046;-72
2022/09/18 12:43:59;;;;;;;1.38;0.50;;;15.00;99.90;;;;;;4970112;28;20814;-74
2022/09/18 12:47:08;;;;;;;5.18;0.45;;;15.00;99.90;;;;;;4972955;28;20041;-73
2022/09/18 12:49:57;;;;;;;0.60;0.32;;;15.00;99.90;;;;;;4972013;28;20483;-72
2022/09/18 12:52:47;;;;;;;0.30;0.30;;;15.10;99.90;;;;;;4983686;28;20048;-71
2022/09/18 12:55:35;;;;;;;1.05;0.82;;;15.10;99.90;;;;;;5011483;28;20030;-72
2022/09/18 12:58:43;;;;;;;3.05;0.32;;;15.10;99.90;;;;;;5025947;28;20022;-71
2022/09/18 13:01:27;;;;;;;0.93;0.43;;;15.00;99.90;;;;;;4996818;28;20049;-73
2022/09/18 13:04:04;;;;;;;1.15;0.45;;;15.00;99.90;;;;;;5025843;28;20060;-72
2022/09/18 13:06:46;;;;;;;9.35;0.95;;;14.90;99.90;;;;;;5011208;28;20478;-72
2022/09/18 13:09:21;;;;;;;2.05;0.77;;;14.90;99.90;;;;;;5004592;28;20079;-72
2022/09/18 13:11:58;;;;;;;0.93;0.45;;;14.90;99.90;;;;;;4995450;28;20040;-70
2022/09/18 13:14:42;;;;;;;1.42;0.50;;;14.90;99.90;;;;;;4988792;28;20037;-71
2022/09/18 13:17:18;;;;;;;4.20;0.55;;;14.90;99.90;;;;;;4974223;28;20128;-71
2022/09/18 13:19:55;;;;;;;0.57;0.50;;;14.90;99.90;;;;;;4989960;28;20065;-70
2022/09/18 13:22:23;;;;;;;2.55;0.77;;;15.00;99.90;;;;;;4995223;28;20029;-73
2022/09/18 13:24:52;;;;;;;2.38;0.45;;;15.00;99.90;;;;;;5026093;28;20045;-71
2022/09/18 13:27:21;;;;;;;3.80;0.70;;;15.00;99.90;;;;;;5025951;28;20041;-70
2022/09/18 13:29:50;;;;;;;6.03;0.63;;;15.00;99.90;;;;;;5025390;28;20164;-70
2022/09/18 13:32:31;;;;;;;1.45;0.50;;;15.00;99.90;;;;;;5010381;28;20101;-70